sensor_id;sensor_type;location;lat;lon;timestamp;temperature;humidity
21849;DHT22;11089;49.852;19.700;2023-06-14T00:02:44;9.20;1.00
21849;DHT22;11089;49.852;19.700;2023-06-14T00:05:45;9.20;1.00
21849;DHT22;11089;49.852;19.700;2023-06-14T00:08:47;9.30;1.00
21849;DHT22;11089;49.852;19.700;2023-06-14T00:11:48;9.40;1.00
21849;DHT22;11089;49.852;19.700;2023-06-14T00:14:49;9.40;1.00
21849;DHT22;11089;49.852;19.700;2023-06-14T00:17:50;9.40;99.90
21849;DHT22;11089;49.852;19.700;2023-06-14T00:20:51;9.40;99.90
21849;DHT22;11089;49.852;19.700;2023-06-14T00:23:52;9.50;99.90
21849;DHT22;11089;49.852;19.700;2023-06-14T00:26:53;9.40;99.90
21849;DHT22;11089;49.852;19.700;2023-06-14T00:29:55;9.30;99.90
21849;DHT22;11089;49.852;19.700;2023-06-14T00:32:59;9.50;1.00
21849;DHT22;11089;49.852;19.700;2023-06-14T00:36:00;9.40;1.00
21849;DHT22;11089;49.852;19.700;2023-06-14T00:39:01;9.50;1.00
21849;DHT22;11089;49.852;19.700;2023-06-14T00:42:02;9.50;1.00
21849;DHT22;11089;49.852;19.700;2023-06-14T00:45:03;9.40;99.90
21849;DHT22;11089;49.852;19.700;2023-06-14T00:48:04;9.50;1.00
21849;DHT22;11089;49.852;19.700;2023-06-14T00:51:07;9.40;99.90
21849;DHT22;11089;49.852;19.700;2023-06-14T00:54:09;9.40;1.00
21849;DHT22;11089;49.852;19.700;2023-06-14T00:57:12;9.50;1.00
21849;DHT22;11089;49.852;19.700;2023-06-14T01:00:13;9.30;1.00
21849;DHT22;11089;49.852;19.700;2023-06-14T01:03:15;9.30;1.00
21849;DHT22;11089;49.852;19.700;2023-06-14T01:06:33;9.40;1.00
21849;DHT22;11089;49.852;19.700;2023-06-14T01:10:03;9.40;99.90
21849;DHT22;11089;49.852;19.700;2023-06-14T01:13:20;9.50;1.00
21849;DHT22;11089;49.852;19.700;2023-06-14T01:16:22;9.40;99.90
21849;DHT22;11089;49.852;19.700;2023-06-14T01:19:24;9.30;1.00
21849;DHT22;11089;49.852;19.700;2023-06-14T01:22:26;9.10;1.00
21849;DHT22;11089;49.852;19.700;2023-06-14T01:25:28;9.00;99.90
21849;DHT22;11089;49.852;19.700;2023-06-14T01:28:29;9.20;1.00
21849;DHT22;11089;49.852;19.700;2023-06-14T01:31:34;9.30;99.90
21849;DHT22;11089;49.852;19.700;2023-06-14T01:34:41;9.20;99.90
21849;DHT22;11089;49.852;19.700;2023-06-14T01:37:43;9.30;1.00
21849;DHT22;11089;49.852;19.700;2023-06-14T01:40:44;9.40;99.90
21849;DHT22;11089;49.852;19.700;2023-06-14T01:43:46;9.40;1.00
21849;DHT22;11089;49.852;19.700;2023-06-14T01:46:48;9.40;99.90
21849;DHT22;11089;49.852;19.700;2023-06-14T01:49:50;9.40;99.90
21849;DHT22;11089;49.852;19.700;2023-06-14T01:52:51;9.40;1.00
21849;DHT22;11089;49.852;19.700;2023-06-14T01:55:52;9.50;15.00
21849;DHT22;11089;49.852;19.700;2023-06-14T01:58:54;9.50;99.90
21849;DHT22;11089;49.852;19.700;2023-06-14T02:01:56;9.60;1.00
21849;DHT22;11089;49.852;19.700;2023-06-14T02:04:57;9.50;1.00
21849;DHT22;11089;49.852;19.700;2023-06-14T02:07:58;9.50;1.00
21849;DHT22;11089;49.852;19.700;2023-06-14T02:10:59;9.60;1.00
21849;DHT22;11089;49.852;19.700;2023-06-14T02:14:00;9.50;1.00
21849;DHT22;11089;49.852;19.700;2023-06-14T02:17:02;9.40;1.00
21849;DHT22;11089;49.852;19.700;2023-06-14T02:20:03;9.40;99.90
21849;DHT22;11089;49.852;19.700;2023-06-14T02:23:05;9.30;99.90
21849;DHT22;11089;49.852;19.700;2023-06-14T02:26:08;9.30;99.90
21849;DHT22;11089;49.852;19.700;2023-06-14T02:29:09;9.20;99.90
21849;DHT22;11089;49.852;19.700;2023-06-14T02:32:12;9.30;1.00
21849;DHT22;11089;49.852;19.700;2023-06-14T02:35:14;9.30;1.00
21849;DHT22;11089;49.852;19.700;2023-06-14T02:38:15;9.30;1.00
21849;DHT22;11089;49.852;19.700;2023-06-14T02:41:16;9.10;99.90
21849;DHT22;11089;49.852;19.700;2023-06-14T02:44:23;8.90;1.00
21849;DHT22;11089;49.852;19.700;2023-06-14T02:47:24;9.00;1.00
21849;DHT22;11089;49.852;19.700;2023-06-14T02:50:26;9.10;99.90
21849;DHT22;11089;49.852;19.700;2023-06-14T02:53:28;9.10;99.90
21849;DHT22;11089;49.852;19.700;2023-06-14T02:56:29;9.10;99.90
21849;DHT22;11089;49.852;19.700;2023-06-14T02:59:31;9.20;1.00
21849;DHT22;11089;49.852;19.700;2023-06-14T03:02:31;9.30;1.00
21849;DHT22;11089;49.852;19.700;2023-06-14T03:05:32;9.40;99.90
21849;DHT22;11089;49.852;19.700;2023-06-14T03:08:34;9.60;1.00
21849;DHT22;11089;49.852;19.700;2023-06-14T03:11:39;9.60;1.00
21849;DHT22;11089;49.852;19.700;2023-06-14T03:14:40;9.70;1.00
21849;DHT22;11089;49.852;19.700;2023-06-14T03:17:42;9.80;1.00
21849;DHT22;11089;49.852;19.700;2023-06-14T03:20:46;9.80;99.90
21849;DHT22;11089;49.852;19.700;2023-06-14T03:23:47;9.90;1.00
21849;DHT22;11089;49.852;19.700;2023-06-14T03:26:49;10.00;26.70
21849;DHT22;11089;49.852;19.700;2023-06-14T03:29:50;9.90;1.00
21849;DHT22;11089;49.852;19.700;2023-06-14T03:32:51;10.00;99.90
21849;DHT22;11089;49.852;19.700;2023-06-14T03:35:53;10.00;99.90
21849;DHT22;11089;49.852;19.700;2023-06-14T03:38:54;10.00;1.00
21849;DHT22;11089;49.852;19.700;2023-06-14T03:41:55;10.10;99.90
21849;DHT22;11089;49.852;19.700;2023-06-14T03:44:56;10.10;1.00
21849;DHT22;11089;49.852;19.700;2023-06-14T03:47:57;10.10;1.00
21849;DHT22;11089;49.852;19.700;2023-06-14T03:50:59;10.10;1.00
21849;DHT22;11089;49.852;19.700;2023-06-14T03:54:00;10.10;1.00
21849;DHT22;11089;49.852;19.700;2023-06-14T03:57:01;10.20;99.90
21849;DHT22;11089;49.852;19.700;2023-06-14T04:00:02;10.10;68.10
21849;DHT22;11089;49.852;19.700;2023-06-14T04:03:06;10.10;1.00
21849;DHT22;11089;49.852;19.700;2023-06-14T04:06:07;10.20;80.40
21849;DHT22;11089;49.852;19.700;2023-06-14T04:09:08;10.20;99.90
21849;DHT22;11089;49.852;19.700;2023-06-14T04:12:09;10.20;1.00
21849;DHT22;11089;49.852;19.700;2023-06-14T04:15:12;10.20;90.20
21849;DHT22;11089;49.852;19.700;2023-06-14T04:18:14;10.20;1.00
21849;DHT22;11089;49.852;19.700;2023-06-14T04:21:15;10.30;1.00
21849;DHT22;11089;49.852;19.700;2023-06-14T04:24:16;10.40;99.90
21849;DHT22;11089;49.852;19.700;2023-06-14T04:27:17;10.50;1.00
21849;DHT22;11089;49.852;19.700;2023-06-14T04:30:22;10.60;1.00
21849;DHT22;11089;49.852;19.700;2023-06-14T04:33:27;10.70;1.00
21849;DHT22;11089;49.852;19.700;2023-06-14T04:36:28;10.80;1.00
21849;DHT22;11089;49.852;19.700;2023-06-14T04:39:29;10.80;1.00
21849;DHT22;11089;49.852;19.700;2023-06-14T04:42:30;10.80;1.00
21849;DHT22;11089;49.852;19.700;2023-06-14T04:45:31;10.80;1.00
21849;DHT22;11089;49.852;19.700;2023-06-14T04:48:32;10.90;1.00
21849;DHT22;11089;49.852;19.700;2023-06-14T04:51:33;10.90;1.00
21849;DHT22;11089;49.852;19.700;2023-06-14T04:54:36;11.00;1.00
21849;DHT22;11089;49.852;19.700;2023-06-14T04:57:37;11.00;1.00
21849;DHT22;11089;49.852;19.700;2023-06-14T05:00:39;11.00;99.90
21849;DHT22;11089;49.852;19.700;2023-06-14T05:03:40;11.00;28.40
21849;DHT22;11089;49.852;19.700;2023-06-14T05:06:42;11.10;99.90
21849;DHT22;11089;49.852;19.700;2023-06-14T05:09:45;11.10;99.90
21849;DHT22;11089;49.852;19.700;2023-06-14T05:12:46;11.10;99.90
21849;DHT22;11089;49.852;19.700;2023-06-14T05:15:48;11.20;1.00
21849;DHT22;11089;49.852;19.700;2023-06-14T05:18:49;11.30;1.00
21849;DHT22;11089;49.852;19.700;2023-06-14T05:21:51;11.30;1.00
21849;DHT22;11089;49.852;19.700;2023-06-14T05:24:53;11.40;99.90
21849;DHT22;11089;49.852;19.700;2023-06-14T05:27:54;11.40;99.90
21849;DHT22;11089;49.852;19.700;2023-06-14T05:30:55;11.50;99.90
21849;DHT22;11089;49.852;19.700;2023-06-14T05:33:56;11.30;1.00
21849;DHT22;11089;49.852;19.700;2023-06-14T05:36:57;11.40;1.00
21849;DHT22;11089;49.852;19.700;2023-06-14T05:39:59;11.40;1.00
21849;DHT22;11089;49.852;19.700;2023-06-14T05:43:00;11.50;1.00
21849;DHT22;11089;49.852;19.700;2023-06-14T05:46:01;11.50;99.90
21849;DHT22;11089;49.852;19.700;2023-06-14T05:49:01;11.70;99.90
21849;DHT22;11089;49.852;19.700;2023-06-14T05:52:02;11.80;61.60
21849;DHT22;11089;49.852;19.700;2023-06-14T05:55:04;11.90;1.00
21849;DHT22;11089;49.852;19.700;2023-06-14T05:58:06;12.00;1.00
21849;DHT22;11089;49.852;19.700;2023-06-14T06:01:07;12.00;1.00
21849;DHT22;11089;49.852;19.700;2023-06-14T06:04:08;12.10;1.00
21849;DHT22;11089;49.852;19.700;2023-06-14T06:07:09;12.20;1.00
21849;DHT22;11089;49.852;19.700;2023-06-14T06:10:10;12.30;1.00
21849;DHT22;11089;49.852;19.700;2023-06-14T06:13:12;12.40;1.00
21849;DHT22;11089;49.852;19.700;2023-06-14T06:16:13;12.60;1.00
21849;DHT22;11089;49.852;19.700;2023-06-14T06:19:14;12.60;99.90
21849;DHT22;11089;49.852;19.700;2023-06-14T06:22:15;12.80;99.90
21849;DHT22;11089;49.852;19.700;2023-06-14T06:25:16;12.80;1.00
21849;DHT22;11089;49.852;19.700;2023-06-14T06:28:17;12.70;1.00
21849;DHT22;11089;49.852;19.700;2023-06-14T06:31:18;12.90;99.90
21849;DHT22;11089;49.852;19.700;2023-06-14T06:34:19;13.00;1.00
21849;DHT22;11089;49.852;19.700;2023-06-14T06:37:20;13.00;49.80
21849;DHT22;11089;49.852;19.700;2023-06-14T06:40:21;13.20;1.00
21849;DHT22;11089;49.852;19.700;2023-06-14T06:43:22;13.10;99.90
21849;DHT22;11089;49.852;19.700;2023-06-14T06:46:23;13.20;99.90
21849;DHT22;11089;49.852;19.700;2023-06-14T06:49:24;13.30;1.00
21849;DHT22;11089;49.852;19.700;2023-06-14T06:52:25;13.40;1.00
21849;DHT22;11089;49.852;19.700;2023-06-14T06:55:26;13.50;1.00
21849;DHT22;11089;49.852;19.700;2023-06-14T06:58:27;13.60;99.90
21849;DHT22;11089;49.852;19.700;2023-06-14T07:01:28;13.70;99.90
21849;DHT22;11089;49.852;19.700;2023-06-14T07:04:29;13.70;1.00
21849;DHT22;11089;49.852;19.700;2023-06-14T07:07:30;13.80;1.00
21849;DHT22;11089;49.852;19.700;2023-06-14T07:10:31;13.80;99.90
21849;DHT22;11089;49.852;19.700;2023-06-14T07:13:32;13.80;99.90
21849;DHT22;11089;49.852;19.700;2023-06-14T07:16:33;13.90;1.00
21849;DHT22;11089;49.852;19.700;2023-06-14T07:19:33;13.80;1.00
21849;DHT22;11089;49.852;19.700;2023-06-14T07:22:34;13.80;1.00
21849;DHT22;11089;49.852;19.700;2023-06-14T07:25:35;13.80;23.00
21849;DHT22;11089;49.852;19.700;2023-06-14T07:28:36;13.90;99.90
21849;DHT22;11089;49.852;19.700;2023-06-14T07:31:37;13.90;1.00
21849;DHT22;11089;49.852;19.700;2023-06-14T07:34:38;14.10;99.90
21849;DHT22;11089;49.852;19.700;2023-06-14T07:37:39;14.20;99.90
21849;DHT22;11089;49.852;19.700;2023-06-14T07:40:40;14.20;1.00
21849;DHT22;11089;49.852;19.700;2023-06-14T07:43:41;14.30;99.90
21849;DHT22;11089;49.852;19.700;2023-06-14T07:46:41;14.30;99.90
21849;DHT22;11089;49.852;19.700;2023-06-14T07:49:42;14.40;1.00
21849;DHT22;11089;49.852;19.700;2023-06-14T07:52:44;14.50;99.90
21849;DHT22;11089;49.852;19.700;2023-06-14T07:55:45;14.50;1.00
21849;DHT22;11089;49.852;19.700;2023-06-14T07:58:48;14.70;1.00
21849;DHT22;11089;49.852;19.700;2023-06-14T08:01:48;14.70;1.00
21849;DHT22;11089;49.852;19.700;2023-06-14T08:04:49;14.70;1.00
21849;DHT22;11089;49.852;19.700;2023-06-14T08:07:50;14.50;1.00
21849;DHT22;11089;49.852;19.700;2023-06-14T08:10:51;14.50;99.90
21849;DHT22;11089;49.852;19.700;2023-06-14T08:13:52;14.60;1.00
21849;DHT22;11089;49.852;19.700;2023-06-14T08:16:53;14.70;1.00
21849;DHT22;11089;49.852;19.700;2023-06-14T08:19:54;14.70;1.00
21849;DHT22;11089;49.852;19.700;2023-06-14T08:22:58;14.80;1.00
21849;DHT22;11089;49.852;19.700;2023-06-14T08:25:59;14.90;99.90
21849;DHT22;11089;49.852;19.700;2023-06-14T08:29:02;14.90;1.00
21849;DHT22;11089;49.852;19.700;2023-06-14T08:32:03;14.90;1.00
21849;DHT22;11089;49.852;19.700;2023-06-14T08:35:04;14.90;99.90
21849;DHT22;11089;49.852;19.700;2023-06-14T08:38:06;14.80;1.00
21849;DHT22;11089;49.852;19.700;2023-06-14T08:41:08;14.80;1.00
21849;DHT22;11089;49.852;19.700;2023-06-14T08:44:12;14.70;1.00
21849;DHT22;11089;49.852;19.700;2023-06-14T08:47:14;14.80;54.70
21849;DHT22;11089;49.852;19.700;2023-06-14T08:50:20;14.80;1.00
21849;DHT22;11089;49.852;19.700;2023-06-14T08:53:22;14.80;1.00
21849;DHT22;11089;49.852;19.700;2023-06-14T08:56:26;14.80;1.00
21849;DHT22;11089;49.852;19.700;2023-06-14T08:59:28;14.90;1.00
21849;DHT22;11089;49.852;19.700;2023-06-14T09:02:29;14.90;1.00
21849;DHT22;11089;49.852;19.700;2023-06-14T09:05:30;14.90;1.00
21849;DHT22;11089;49.852;19.700;2023-06-14T09:08:31;15.00;99.90
21849;DHT22;11089;49.852;19.700;2023-06-14T09:11:32;15.00;99.90
21849;DHT22;11089;49.852;19.700;2023-06-14T09:14:33;15.10;1.00
21849;DHT22;11089;49.852;19.700;2023-06-14T09:17:39;15.20;1.00
21849;DHT22;11089;49.852;19.700;2023-06-14T09:20:40;15.20;99.90
21849;DHT22;11089;49.852;19.700;2023-06-14T09:23:45;15.00;1.00
21849;DHT22;11089;49.852;19.700;2023-06-14T09:26:53;14.80;1.00
21849;DHT22;11089;49.852;19.700;2023-06-14T09:29:54;14.90;50.60
21849;DHT22;11089;49.852;19.700;2023-06-14T09:32:55;14.90;1.00
21849;DHT22;11089;49.852;19.700;2023-06-14T09:35:57;14.90;1.00
21849;DHT22;11089;49.852;19.700;2023-06-14T09:38:59;14.80;1.00
21849;DHT22;11089;49.852;19.700;2023-06-14T09:42:01;14.90;99.90
21849;DHT22;11089;49.852;19.700;2023-06-14T09:45:02;15.00;1.00
21849;DHT22;11089;49.852;19.700;2023-06-14T09:48:04;15.00;1.00
21849;DHT22;11089;49.852;19.700;2023-06-14T09:51:06;15.20;99.90
21849;DHT22;11089;49.852;19.700;2023-06-14T09:54:07;15.30;1.00
21849;DHT22;11089;49.852;19.700;2023-06-14T09:57:13;15.40;53.30
21849;DHT22;11089;49.852;19.700;2023-06-14T10:00:15;15.40;99.90
21849;DHT22;11089;49.852;19.700;2023-06-14T10:03:24;15.50;30.40
21849;DHT22;11089;49.852;19.700;2023-06-14T10:06:28;15.80;99.90
21849;DHT22;11089;49.852;19.700;2023-06-14T10:09:30;16.10;1.00
21849;DHT22;11089;49.852;19.700;2023-06-14T10:12:32;16.40;1.00
21849;DHT22;11089;49.852;19.700;2023-06-14T10:15:48;16.70;1.00
21849;DHT22;11089;49.852;19.700;2023-06-14T10:22:17;16.70;1.00
21849;DHT22;11089;49.852;19.700;2023-06-14T10:25:29;16.40;99.90
21849;DHT22;11089;49.852;19.700;2023-06-14T10:28:30;16.40;1.00
21849;DHT22;11089;49.852;19.700;2023-06-14T10:31:48;16.60;50.60
21849;DHT22;11089;49.852;19.700;2023-06-14T10:34:57;16.80;1.00
21849;DHT22;11089;49.852;19.700;2023-06-14T10:38:08;16.60;1.00
21849;DHT22;11089;49.852;19.700;2023-06-14T10:41:09;17.20;34.30
21849;DHT22;11089;49.852;19.700;2023-06-14T10:50:28;18.00;1.00
21849;DHT22;11089;49.852;19.700;2023-06-14T10:53:40;18.30;1.00
21849;DHT22;11089;49.852;19.700;2023-06-14T10:56:49;18.60;1.00
21849;DHT22;11089;49.852;19.700;2023-06-14T10:59:50;18.70;99.90
21849;DHT22;11089;49.852;19.700;2023-06-14T11:06:22;18.40;99.90
21849;DHT22;11089;49.852;19.700;2023-06-14T11:09:47;18.50;1.00
21849;DHT22;11089;49.852;19.700;2023-06-14T11:12:54;18.40;1.00
21849;DHT22;11089;49.852;19.700;2023-06-14T11:15:56;18.60;1.00
21849;DHT22;11089;49.852;19.700;2023-06-14T11:18:59;19.10;99.90
21849;DHT22;11089;49.852;19.700;2023-06-14T11:22:00;19.00;99.90
21849;DHT22;11089;49.852;19.700;2023-06-14T11:25:01;18.40;99.90
21849;DHT22;11089;49.852;19.700;2023-06-14T11:28:04;18.30;1.00
21849;DHT22;11089;49.852;19.700;2023-06-14T11:31:06;18.10;1.00
21849;DHT22;11089;49.852;19.700;2023-06-14T11:34:11;18.20;1.00
21849;DHT22;11089;49.852;19.700;2023-06-14T11:37:12;18.30;1.00
21849;DHT22;11089;49.852;19.700;2023-06-14T11:40:13;18.50;1.00
21849;DHT22;11089;49.852;19.700;2023-06-14T11:43:14;18.50;1.00
21849;DHT22;11089;49.852;19.700;2023-06-14T11:46:15;18.90;1.00
21849;DHT22;11089;49.852;19.700;2023-06-14T11:49:17;18.70;99.90
21849;DHT22;11089;49.852;19.700;2023-06-14T11:52:18;18.60;99.90
21849;DHT22;11089;49.852;19.700;2023-06-14T11:55:19;19.20;1.00
21849;DHT22;11089;49.852;19.700;2023-06-14T11:58:20;19.70;99.90
21849;DHT22;11089;49.852;19.700;2023-06-14T12:01:21;20.00;99.90
21849;DHT22;11089;49.852;19.700;2023-06-14T12:04:26;20.40;99.90
21849;DHT22;11089;49.852;19.700;2023-06-14T12:07:30;20.90;1.00
21849;DHT22;11089;49.852;19.700;2023-06-14T12:10:40;20.90;1.00
21849;DHT22;11089;49.852;19.700;2023-06-14T12:13:42;20.90;1.00
21849;DHT22;11089;49.852;19.700;2023-06-14T12:16:43;21.00;1.00
21849;DHT22;11089;49.852;19.700;2023-06-14T12:19:45;20.80;1.00
21849;DHT22;11089;49.852;19.700;2023-06-14T12:22:50;20.60;1.00
21849;DHT22;11089;49.852;19.700;2023-06-14T12:25:51;20.70;1.00
21849;DHT22;11089;49.852;19.700;2023-06-14T12:28:52;20.80;1.00
21849;DHT22;11089;49.852;19.700;2023-06-14T12:31:53;21.00;1.00
21849;DHT22;11089;49.852;19.700;2023-06-14T12:34:55;21.00;1.00
21849;DHT22;11089;49.852;19.700;2023-06-14T12:37:56;20.90;1.00
21849;DHT22;11089;49.852;19.700;2023-06-14T12:40:57;21.20;1.00
21849;DHT22;11089;49.852;19.700;2023-06-14T12:43:58;21.30;1.00
21849;DHT22;11089;49.852;19.700;2023-06-14T12:47:00;21.50;1.00
21849;DHT22;11089;49.852;19.700;2023-06-14T12:50:01;21.90;1.00
21849;DHT22;11089;49.852;19.700;2023-06-14T12:53:01;21.90;1.00
21849;DHT22;11089;49.852;19.700;2023-06-14T12:56:02;22.00;1.00
21849;DHT22;11089;49.852;19.700;2023-06-14T12:59:03;22.20;1.00
21849;DHT22;11089;49.852;19.700;2023-06-14T13:02:12;21.90;1.00
21849;DHT22;11089;49.852;19.700;2023-06-14T13:05:13;21.90;1.00
21849;DHT22;11089;49.852;19.700;2023-06-14T13:08:14;21.90;1.00
21849;DHT22;11089;49.852;19.700;2023-06-14T13:11:15;21.90;1.00
21849;DHT22;11089;49.852;19.700;2023-06-14T13:14:16;21.30;1.00
21849;DHT22;11089;49.852;19.700;2023-06-14T13:17:17;21.40;1.00
21849;DHT22;11089;49.852;19.700;2023-06-14T13:20:18;21.40;1.00
21849;DHT22;11089;49.852;19.700;2023-06-14T13:23:19;21.40;1.00
21849;DHT22;11089;49.852;19.700;2023-06-14T13:26:20;21.40;1.00
21849;DHT22;11089;49.852;19.700;2023-06-14T13:29:21;21.40;1.00
21849;DHT22;11089;49.852;19.700;2023-06-14T13:32:22;21.40;1.00
21849;DHT22;11089;49.852;19.700;2023-06-14T13:35:24;21.30;1.00
21849;DHT22;11089;49.852;19.700;2023-06-14T13:38:25;21.10;1.00
21849;DHT22;11089;49.852;19.700;2023-06-14T13:41:27;21.20;1.00
21849;DHT22;11089;49.852;19.700;2023-06-14T13:44:34;21.50;1.00
21849;DHT22;11089;49.852;19.700;2023-06-14T13:47:38;21.40;1.00
21849;DHT22;11089;49.852;19.700;2023-06-14T13:50:38;21.50;1.00
21849;DHT22;11089;49.852;19.700;2023-06-14T13:53:40;21.70;1.00
21849;DHT22;11089;49.852;19.700;2023-06-14T13:56:41;21.60;1.00
21849;DHT22;11089;49.852;19.700;2023-06-14T13:59:43;21.60;1.00
21849;DHT22;11089;49.852;19.700;2023-06-14T14:02:46;21.50;1.00
21849;DHT22;11089;49.852;19.700;2023-06-14T14:05:47;21.50;1.00
21849;DHT22;11089;49.852;19.700;2023-06-14T14:08:48;21.60;1.00
21849;DHT22;11089;49.852;19.700;2023-06-14T14:11:49;21.80;1.00
21849;DHT22;11089;49.852;19.700;2023-06-14T14:14:50;21.40;1.00
21849;DHT22;11089;49.852;19.700;2023-06-14T14:17:51;21.20;1.00
21849;DHT22;11089;49.852;19.700;2023-06-14T14:20:54;21.00;1.00
21849;DHT22;11089;49.852;19.700;2023-06-14T14:23:55;21.00;1.00
21849;DHT22;11089;49.852;19.700;2023-06-14T14:26:56;20.90;1.00
21849;DHT22;11089;49.852;19.700;2023-06-14T14:30:00;20.70;1.00
21849;DHT22;11089;49.852;19.700;2023-06-14T14:33:01;20.60;1.00
21849;DHT22;11089;49.852;19.700;2023-06-14T14:36:01;20.60;1.00
21849;DHT22;11089;49.852;19.700;2023-06-14T14:39:04;20.60;1.00
21849;DHT22;11089;49.852;19.700;2023-06-14T14:42:05;20.60;1.00
21849;DHT22;11089;49.852;19.700;2023-06-14T14:45:08;20.50;1.00
21849;DHT22;11089;49.852;19.700;2023-06-14T14:48:09;20.40;1.00
21849;DHT22;11089;49.852;19.700;2023-06-14T14:51:10;20.60;1.00
21849;DHT22;11089;49.852;19.700;2023-06-14T14:54:11;20.50;1.00
21849;DHT22;11089;49.852;19.700;2023-06-14T14:57:12;20.40;1.00
21849;DHT22;11089;49.852;19.700;2023-06-14T15:00:13;20.20;1.00
21849;DHT22;11089;49.852;19.700;2023-06-14T15:03:14;20.10;1.00
21849;DHT22;11089;49.852;19.700;2023-06-14T15:06:15;20.10;1.00
21849;DHT22;11089;49.852;19.700;2023-06-14T15:09:18;20.40;1.00
21849;DHT22;11089;49.852;19.700;2023-06-14T15:12:19;20.30;1.00
21849;DHT22;11089;49.852;19.700;2023-06-14T15:15:23;20.20;1.00
21849;DHT22;11089;49.852;19.700;2023-06-14T15:18:24;20.20;1.00
21849;DHT22;11089;49.852;19.700;2023-06-14T15:21:25;20.20;1.00
21849;DHT22;11089;49.852;19.700;2023-06-14T15:24:26;20.50;1.00
21849;DHT22;11089;49.852;19.700;2023-06-14T15:27:27;20.60;1.00
21849;DHT22;11089;49.852;19.700;2023-06-14T15:30:28;20.50;1.00
21849;DHT22;11089;49.852;19.700;2023-06-14T15:33:29;20.50;1.00
21849;DHT22;11089;49.852;19.700;2023-06-14T15:36:30;20.30;1.00
21849;DHT22;11089;49.852;19.700;2023-06-14T15:39:31;20.20;1.00
21849;DHT22;11089;49.852;19.700;2023-06-14T15:42:32;20.20;1.00
21849;DHT22;11089;49.852;19.700;2023-06-14T15:45:33;20.10;1.00
21849;DHT22;11089;49.852;19.700;2023-06-14T15:48:34;20.00;1.00
21849;DHT22;11089;49.852;19.700;2023-06-14T15:51:35;19.80;1.00
21849;DHT22;11089;49.852;19.700;2023-06-14T15:54:35;19.90;1.00
21849;DHT22;11089;49.852;19.700;2023-06-14T15:57:36;19.80;1.00
21849;DHT22;11089;49.852;19.700;2023-06-14T16:00:37;19.60;1.00
21849;DHT22;11089;49.852;19.700;2023-06-14T16:03:38;19.70;1.00
21849;DHT22;11089;49.852;19.700;2023-06-14T16:06:39;19.60;1.00
21849;DHT22;11089;49.852;19.700;2023-06-14T16:09:40;19.50;1.00
21849;DHT22;11089;49.852;19.700;2023-06-14T16:12:41;19.20;1.00
21849;DHT22;11089;49.852;19.700;2023-06-14T16:15:41;18.90;1.00
21849;DHT22;11089;49.852;19.700;2023-06-14T16:18:42;18.80;1.00
21849;DHT22;11089;49.852;19.700;2023-06-14T16:21:43;18.70;1.00
21849;DHT22;11089;49.852;19.700;2023-06-14T16:24:44;18.70;1.00
21849;DHT22;11089;49.852;19.700;2023-06-14T16:27:45;18.60;1.00
21849;DHT22;11089;49.852;19.700;2023-06-14T16:30:46;18.60;1.00
21849;DHT22;11089;49.852;19.700;2023-06-14T16:33:47;18.50;1.00
21849;DHT22;11089;49.852;19.700;2023-06-14T16:36:48;18.40;9.20
21849;DHT22;11089;49.852;19.700;2023-06-14T16:39:50;18.50;28.80
21849;DHT22;11089;49.852;19.700;2023-06-14T16:42:50;18.70;18.10
21849;DHT22;11089;49.852;19.700;2023-06-14T16:45:52;18.70;1.00
21849;DHT22;11089;49.852;19.700;2023-06-14T16:48:53;18.70;1.00
21849;DHT22;11089;49.852;19.700;2023-06-14T16:51:54;18.70;1.00
21849;DHT22;11089;49.852;19.700;2023-06-14T16:54:55;18.60;1.00
21849;DHT22;11089;49.852;19.700;2023-06-14T16:57:56;18.50;41.20
21849;DHT22;11089;49.852;19.700;2023-06-14T17:00:56;18.70;4.00
21849;DHT22;11089;49.852;19.700;2023-06-14T17:03:57;18.60;1.00
21849;DHT22;11089;49.852;19.700;2023-06-14T17:06:59;18.60;1.00
21849;DHT22;11089;49.852;19.700;2023-06-14T17:09:59;18.60;11.00
21849;DHT22;11089;49.852;19.700;2023-06-14T17:13:00;18.50;40.00
21849;DHT22;11089;49.852;19.700;2023-06-14T17:16:02;18.40;41.40
21849;DHT22;11089;49.852;19.700;2023-06-14T17:19:03;18.30;57.10
21849;DHT22;11089;49.852;19.700;2023-06-14T17:22:05;18.20;99.90
21849;DHT22;11089;49.852;19.700;2023-06-14T17:25:06;18.20;49.60
21849;DHT22;11089;49.852;19.700;2023-06-14T17:28:08;18.10;1.00
21849;DHT22;11089;49.852;19.700;2023-06-14T17:31:09;18.00;1.00
21849;DHT22;11089;49.852;19.700;2023-06-14T17:34:10;18.00;1.00
21849;DHT22;11089;49.852;19.700;2023-06-14T17:37:11;17.90;13.40
21849;DHT22;11089;49.852;19.700;2023-06-14T17:40:12;17.80;99.90
21849;DHT22;11089;49.852;19.700;2023-06-14T17:43:13;17.80;99.90
21849;DHT22;11089;49.852;19.700;2023-06-14T17:46:13;17.90;99.90
21849;DHT22;11089;49.852;19.700;2023-06-14T17:49:14;17.80;99.90
21849;DHT22;11089;49.852;19.700;2023-06-14T17:52:15;17.70;99.90
21849;DHT22;11089;49.852;19.700;2023-06-14T17:55:16;17.70;99.90
21849;DHT22;11089;49.852;19.700;2023-06-14T17:58:17;17.60;99.90
21849;DHT22;11089;49.852;19.700;2023-06-14T18:01:18;17.50;1.00
21849;DHT22;11089;49.852;19.700;2023-06-14T18:04:21;17.50;1.00
21849;DHT22;11089;49.852;19.700;2023-06-14T18:07:22;17.60;1.00
21849;DHT22;11089;49.852;19.700;2023-06-14T18:10:24;17.40;1.00
21849;DHT22;11089;49.852;19.700;2023-06-14T18:13:25;17.30;1.00
21849;DHT22;11089;49.852;19.700;2023-06-14T18:16:26;17.20;1.00
21849;DHT22;11089;49.852;19.700;2023-06-14T18:19:27;17.10;1.00
21849;DHT22;11089;49.852;19.700;2023-06-14T18:22:29;17.10;1.00
21849;DHT22;11089;49.852;19.700;2023-06-14T18:25:30;17.10;1.00
21849;DHT22;11089;49.852;19.700;2023-06-14T18:28:31;17.00;1.00
21849;DHT22;11089;49.852;19.700;2023-06-14T18:31:32;16.90;1.00
21849;DHT22;11089;49.852;19.700;2023-06-14T18:34:33;16.90;1.00
21849;DHT22;11089;49.852;19.700;2023-06-14T18:37:34;16.80;1.00
21849;DHT22;11089;49.852;19.700;2023-06-14T18:40:35;16.50;1.00
21849;DHT22;11089;49.852;19.700;2023-06-14T18:43:37;16.40;1.00
21849;DHT22;11089;49.852;19.700;2023-06-14T18:46:38;16.40;1.00
21849;DHT22;11089;49.852;19.700;2023-06-14T18:49:40;16.30;1.00
21849;DHT22;11089;49.852;19.700;2023-06-14T18:52:41;16.10;1.00
21849;DHT22;11089;49.852;19.700;2023-06-14T18:55:42;16.10;1.00
21849;DHT22;11089;49.852;19.700;2023-06-14T18:58:44;16.10;1.00
21849;DHT22;11089;49.852;19.700;2023-06-14T19:01:45;15.90;23.60
21849;DHT22;11089;49.852;19.700;2023-06-14T19:04:46;15.80;99.90
21849;DHT22;11089;49.852;19.700;2023-06-14T19:07:47;15.80;99.90
21849;DHT22;11089;49.852;19.700;2023-06-14T19:10:48;15.50;99.90
21849;DHT22;11089;49.852;19.700;2023-06-14T19:13:49;15.40;1.00
21849;DHT22;11089;49.852;19.700;2023-06-14T19:16:50;15.30;99.90
21849;DHT22;11089;49.852;19.700;2023-06-14T19:19:52;15.40;99.90
21849;DHT22;11089;49.852;19.700;2023-06-14T19:22:53;15.20;1.00